createdAt,value
2018-07-01T00:01:05.153Z,0
2018-07-01T00:02:15.235Z,0
2018-07-01T00:03:25.051Z,0
2018-07-01T00:04:35.139Z,0
2018-07-01T00:05:44.969Z,0
2018-07-01T00:06:55.039Z,0
2018-07-01T00:08:05.150Z,0
2018-07-01T00:09:14.993Z,0
2018-07-01T00:10:25.072Z,0
2018-07-01T00:11:35.169Z,0
2018-07-01T00:12:45.236Z,0
2018-07-01T00:13:55.312Z,0
2018-07-01T00:15:05.122Z,0
2018-07-01T00:16:14.692Z,0
2018-07-01T00:17:24.622Z,0
2018-07-01T00:18:34.437Z,0
2018-07-01T00:19:44.262Z,0
2018-07-01T00:20:54.764Z,0
2018-07-01T00:22:04.870Z,0
2018-07-01T00:23:14.430Z,0
2018-07-01T00:24:24.513Z,0
2018-07-01T00:25:34.364Z,0
2018-07-01T00:26:44.453Z,0
2018-07-01T00:27:54.646Z,0
2018-07-01T00:29:04.736Z,0
2018-07-01T00:30:14.833Z,0
2018-07-01T00:31:24.948Z,0
2018-07-01T00:32:35.036Z,0
2018-07-01T00:33:44.819Z,0
2018-07-01T00:34:54.363Z,0
2018-07-01T00:36:04.682Z,0
2018-07-01T00:37:15.034Z,0
2018-07-01T00:38:25.153Z,0
2018-07-01T00:39:35.263Z,0
2018-07-01T00:40:45.402Z,0
2018-07-01T00:41:55.488Z,0
2018-07-01T00:43:05.297Z,0
2018-07-01T00:44:15.382Z,0
2018-07-01T00:45:25.461Z,0
2018-07-01T00:46:35.533Z,0
2018-07-01T00:47:45.613Z,0
2018-07-01T00:48:55.686Z,0
2018-07-01T00:50:05.934Z,0
2018-07-01T00:51:16.056Z,0
2018-07-01T00:52:25.876Z,0
2018-07-01T00:53:35.935Z,0
2018-07-01T00:54:46.006Z,0
2018-07-01T00:55:56.061Z,0
2018-07-01T00:57:05.886Z,0
2018-07-01T00:58:16.010Z,0
2018-07-01T00:59:26.081Z,0
2018-07-01T01:00:36.190Z,0
2018-07-01T01:01:46.323Z,0
2018-07-01T01:02:56.407Z,0
2018-07-01T01:04:06.500Z,0
2018-07-01T01:05:16.579Z,0
2018-07-01T01:06:26.661Z,0
2018-07-01T01:07:36.729Z,0
2018-07-01T01:08:47.022Z,0
2018-07-01T01:09:57.349Z,0
2018-07-01T01:11:07.417Z,0
2018-07-01T01:12:17.498Z,0
2018-07-01T01:13:27.570Z,0
2018-07-01T01:14:37.656Z,0
2018-07-01T01:15:47.736Z,0
2018-07-01T01:16:57.585Z,0
2018-07-01T01:18:07.665Z,0
2018-07-01T01:19:17.743Z,0
2018-07-01T01:20:27.292Z,0
2018-07-01T01:21:37.366Z,0
2018-07-01T01:22:47.499Z,0
2018-07-01T01:23:57.689Z,0
2018-07-01T01:25:07.775Z,0
2018-07-01T01:26:17.848Z,0
2018-07-01T01:27:27.911Z,0
2018-07-01T01:28:37.725Z,0
2018-07-01T01:29:47.814Z,0
2018-07-01T01:30:57.914Z,0
2018-07-01T01:32:07.717Z,0
2018-07-01T01:33:17.582Z,0
2018-07-01T01:34:27.688Z,0
2018-07-01T01:35:37.778Z,0
2018-07-01T01:36:47.866Z,0
2018-07-01T01:37:57.942Z,0
2018-07-01T01:39:08.031Z,0
2018-07-01T01:40:18.098Z,0
2018-07-01T01:41:28.175Z,0
2018-07-01T01:42:38.234Z,0
2018-07-01T01:43:48.314Z,0
2018-07-01T01:44:58.380Z,0
2018-07-01T01:46:08.465Z,0
2018-07-01T01:47:18.531Z,0
2018-07-01T01:48:28.338Z,0
2018-07-01T01:49:38.498Z,0
2018-07-01T01:50:48.600Z,0
2018-07-01T01:51:58.668Z,0
2018-07-01T01:53:08.730Z,0
2018-07-01T01:54:18.681Z,0
2018-07-01T01:55:28.867Z,0
2018-07-01T01:56:38.948Z,0
2018-07-01T01:57:49.025Z,0
2018-07-01T01:58:58.843Z,0
2018-07-01T02:00:08.941Z,0
2018-07-01T02:01:19.021Z,0
2018-07-01T02:02:28.842Z,0
2018-07-01T02:03:38.931Z,0
2018-07-01T02:04:48.983Z,0
2018-07-01T02:05:59.073Z,0
2018-07-01T02:07:08.907Z,0
2018-07-01T02:08:19.052Z,0
2018-07-01T02:09:29.143Z,0
2018-07-01T02:10:39.216Z,0
2018-07-01T02:11:49.290Z,0
2018-07-01T02:12:59.092Z,0
2018-07-01T02:14:09.166Z,0
2018-07-01T02:15:19.256Z,0
2018-07-01T02:16:29.329Z,0
2018-07-01T02:17:39.136Z,0
2018-07-01T02:18:48.954Z,0
2018-07-01T02:19:58.755Z,4
2018-07-01T02:21:08.810Z,4
2018-07-01T02:22:18.880Z,0
2018-07-01T02:23:28.969Z,0
2018-07-01T02:24:38.797Z,4
2018-07-01T02:25:51.547Z,0
2018-07-01T02:27:01.619Z,4
2018-07-01T02:28:11.719Z,4
2018-07-01T02:29:21.812Z,8
2018-07-01T02:30:31.905Z,8
2018-07-01T02:31:41.711Z,8
2018-07-01T02:32:51.855Z,8
2018-07-01T02:34:01.667Z,8
2018-07-01T02:35:11.788Z,12
2018-07-01T02:36:21.938Z,12
2018-07-01T02:37:32.051Z,16
2018-07-01T02:38:42.195Z,16
2018-07-01T02:39:52.266Z,20
2018-07-01T02:41:02.081Z,20
2018-07-01T02:42:12.166Z,24
2018-07-01T02:43:22.255Z,24
2018-07-01T02:44:32.345Z,28
2018-07-01T02:45:42.163Z,32
2018-07-01T02:46:52.259Z,36
2018-07-01T02:48:02.083Z,40
2018-07-01T02:49:12.217Z,48
2018-07-01T02:50:22.353Z,56
2018-07-01T02:51:32.154Z,60
2018-07-01T02:52:41.973Z,72
2018-07-01T02:53:52.124Z,76
2018-07-01T02:55:02.229Z,84
2018-07-01T02:56:12.510Z,92
2018-07-01T02:57:22.325Z,100
2018-07-01T02:58:32.418Z,112
2018-07-01T02:59:42.490Z,120
2018-07-01T03:00:52.305Z,128
2018-07-01T03:02:02.377Z,140
2018-07-01T03:34:38.614Z,692
2018-07-01T03:35:48.896Z,704
2018-07-01T03:36:58.760Z,716
2018-07-01T03:38:08.838Z,728
2018-07-01T03:39:18.914Z,744
2018-07-01T03:40:28.975Z,760
2018-07-01T03:41:39.060Z,776
2018-07-01T03:42:49.150Z,796
2018-07-01T03:43:59.238Z,812
2018-07-01T03:45:09.312Z,840
2018-07-01T03:46:19.385Z,868
2018-07-01T03:47:29.188Z,888
2018-07-01T03:48:39.264Z,916
2018-07-01T03:49:49.081Z,972
2018-07-01T03:50:59.163Z,996
2018-07-01T03:52:09.284Z,1036
2018-07-01T03:53:19.347Z,1084
2018-07-01T03:54:29.413Z,1112
2018-07-01T03:55:39.480Z,1148
2018-07-01T03:56:49.561Z,1204
2018-07-01T03:57:59.668Z,1296
2018-07-01T03:59:09.755Z,1288
2018-07-01T04:00:19.823Z,1292
2018-07-01T04:01:29.668Z,1336
2018-07-01T04:02:39.744Z,1332
2018-07-01T04:03:49.925Z,1384
2018-07-01T04:05:00.025Z,1424
2018-07-01T04:06:09.842Z,1460
2018-07-01T04:07:19.927Z,1508
2018-07-01T04:08:29.993Z,1492
2018-07-01T04:09:40.060Z,1496
2018-07-01T04:10:50.121Z,1516
2018-07-01T04:12:00.196Z,1572
2018-07-01T04:13:10.011Z,1688
2018-07-01T04:14:20.092Z,1764
2018-07-01T04:15:30.169Z,1844
2018-07-01T04:16:40.492Z,1900
2018-07-01T04:17:50.572Z,1964
2018-07-01T04:19:00.651Z,2020
2018-07-01T04:20:10.735Z,2068
2018-07-01T04:21:20.799Z,2036
2018-07-01T04:22:30.905Z,2556
2018-07-01T04:23:40.698Z,2068
2018-07-01T04:24:50.765Z,2052
2018-07-01T04:26:00.576Z,1960
2018-07-01T04:27:10.646Z,2104
2018-07-01T04:28:20.958Z,2604
2018-07-01T04:29:30.771Z,2604
2018-07-01T04:30:40.847Z,3504
2018-07-01T04:31:50.940Z,2820
2018-07-01T04:33:00.744Z,2576
2018-07-01T04:34:10.553Z,2448
2018-07-01T04:35:20.638Z,2448
2018-07-01T04:36:30.706Z,2416
2018-07-01T04:37:40.778Z,2372
2018-07-01T04:38:50.870Z,2372
2018-07-01T04:40:00.694Z,2304
2018-07-01T04:41:10.773Z,2240
2018-07-01T04:42:20.579Z,2172
2018-07-01T04:43:30.659Z,2164
2018-07-01T04:44:40.747Z,2180
2018-07-01T04:45:50.558Z,2236
2018-07-01T04:47:00.648Z,2304
2018-07-01T04:48:10.703Z,2380
2018-07-01T04:49:21.026Z,2520
2018-07-01T04:50:30.569Z,2736
2018-07-01T04:51:40.636Z,3556
2018-07-01T04:52:50.720Z,3432
2018-07-01T04:54:00.796Z,3480
2018-07-01T04:55:11.009Z,3476
2018-07-01T04:56:21.351Z,3732
2018-07-01T04:57:31.155Z,4152
2018-07-01T04:58:40.964Z,5148
2018-07-01T04:59:51.056Z,17312
2018-07-01T05:01:00.887Z,14080
2018-07-01T05:02:10.888Z,10616
2018-07-01T05:03:21.230Z,8832
2018-07-01T05:04:31.295Z,12808
2018-07-01T05:05:41.385Z,16640
2018-07-01T05:06:51.455Z,9960
2018-07-01T05:08:01.258Z,12452
2018-07-01T05:09:11.073Z,7052
2018-07-01T05:10:20.880Z,9816
2018-07-01T05:11:30.699Z,16320
2018-07-01T05:12:40.788Z,9048
2018-07-01T05:13:50.365Z,11020
2018-07-01T05:15:00.454Z,7020
2018-07-01T05:16:10.548Z,10452
2018-07-01T05:17:20.881Z,14592
2018-07-01T05:18:30.976Z,8836
2018-07-01T05:19:41.050Z,13036
2018-07-01T05:20:51.137Z,11740
2018-07-01T05:22:01.228Z,4956
2018-07-01T05:23:11.307Z,5516
2018-07-01T05:24:21.378Z,6388
2018-07-01T05:25:31.487Z,10188
2018-07-01T05:26:41.572Z,4888
2018-07-01T05:27:51.860Z,4596
2018-07-01T05:29:01.951Z,4536
2018-07-01T05:30:12.038Z,4524
2018-07-01T05:31:21.871Z,4536
2018-07-01T05:32:31.705Z,4568
2018-07-01T05:33:41.615Z,4592
2018-07-01T05:34:51.726Z,4696
2018-07-01T05:36:01.808Z,4912
2018-07-01T05:37:11.887Z,5040
2018-07-01T05:38:21.964Z,5072
2018-07-01T05:39:32.037Z,5180
2018-07-01T05:40:42.144Z,5864
2018-07-01T05:41:52.237Z,7640
2018-07-01T05:43:02.367Z,11944
2018-07-01T05:44:11.916Z,6060
2018-07-01T05:45:21.979Z,8040
2018-07-01T05:46:32.054Z,5940
2018-07-01T05:47:42.125Z,5796
2018-07-01T05:48:52.219Z,5748
2018-07-01T05:50:02.327Z,5876
2018-07-01T05:51:12.415Z,6056
2018-07-01T05:52:22.223Z,6288
2018-07-01T05:53:32.348Z,5868
2018-07-01T05:54:42.163Z,5852
2018-07-01T05:55:52.238Z,6884
2018-07-01T05:57:02.396Z,5880
2018-07-01T05:58:11.950Z,6208
2018-07-01T05:59:22.038Z,6408
2018-07-01T06:00:31.652Z,6072
2018-07-01T06:01:41.721Z,6400
2018-07-01T06:02:51.819Z,6820
2018-07-01T06:04:01.644Z,6708
2018-07-01T06:05:11.782Z,6576
2018-07-01T06:06:21.859Z,7852
2018-07-01T06:07:32.023Z,6024
2018-07-01T06:08:42.337Z,5944
2018-07-01T06:09:52.609Z,6104
2018-07-01T06:11:02.670Z,9592
2018-07-01T06:12:12.814Z,9632
2018-07-01T06:13:22.902Z,11168
2018-07-01T06:14:33.014Z,12084
2018-07-01T06:15:43.114Z,11936
2018-07-01T06:16:53.547Z,11600
2018-07-01T06:18:03.789Z,11260
2018-07-01T06:19:13.873Z,11084
2018-07-01T06:20:23.964Z,10952
2018-07-01T06:21:34.035Z,10748
2018-07-01T06:22:44.163Z,10604
2018-07-01T06:23:54.254Z,10356
2018-07-01T06:25:04.330Z,10140
2018-07-01T06:26:14.432Z,10008
2018-07-01T06:27:24.503Z,8256
2018-07-01T06:28:34.581Z,7876
2018-07-01T06:29:44.663Z,9148
2018-07-01T06:30:54.773Z,8956
2018-07-01T06:32:04.864Z,9024
2018-07-01T06:33:14.964Z,9004
2018-07-01T06:34:24.792Z,8936
2018-07-01T06:35:34.883Z,8888
2018-07-01T06:36:44.961Z,8916
2018-07-01T06:37:55.052Z,8828
2018-07-01T06:39:05.128Z,8824
2018-07-01T06:40:15.210Z,8760
2018-07-01T06:41:25.340Z,8708
2018-07-01T06:42:35.406Z,8632
2018-07-01T06:43:45.488Z,8524
2018-07-01T06:44:55.576Z,8284
2018-07-01T06:46:05.664Z,8216
2018-07-01T06:47:15.735Z,8140
2018-07-01T06:48:25.819Z,8060
2018-07-01T06:49:36.202Z,7992
2018-07-01T06:50:46.296Z,7880
2018-07-01T06:51:56.116Z,7816
2018-07-01T06:53:06.252Z,7724
2018-07-01T06:54:16.310Z,7664
2018-07-01T06:55:26.390Z,7600
2018-07-01T06:56:36.957Z,7628
2018-07-01T06:57:46.780Z,7644
2018-07-01T06:58:56.915Z,7620
2018-07-01T07:00:07.011Z,7540
2018-07-01T07:01:17.100Z,7452
2018-07-01T07:02:27.391Z,7424
2018-07-01T07:03:37.535Z,7372
2018-07-01T07:04:47.674Z,7352
2018-07-01T07:05:57.750Z,3776
2018-07-01T07:07:07.839Z,3856
2018-07-01T07:08:17.926Z,3692
2018-07-01T07:09:28.006Z,3916
2018-07-01T07:10:38.083Z,3636
2018-07-01T07:11:48.180Z,3760
2018-07-01T07:12:58.257Z,5976
2018-07-01T07:14:08.340Z,5632
2018-07-01T07:15:18.414Z,5528
2018-07-01T07:16:28.832Z,4952
2018-07-01T07:17:38.933Z,4632
2018-07-01T07:18:49.033Z,4216
2018-07-01T07:19:58.853Z,4220
2018-07-01T07:21:08.981Z,4284
2018-07-01T07:22:18.820Z,4324
2018-07-01T07:23:28.902Z,4372
2018-07-01T07:24:39.051Z,4416
2018-07-01T07:25:48.881Z,4408
2018-07-01T07:26:58.706Z,4316
2018-07-01T07:28:08.808Z,4196
2018-07-01T07:29:18.905Z,4024
2018-07-01T07:30:28.717Z,3884
2018-07-01T07:31:38.810Z,3836
2018-07-01T07:32:48.895Z,3828
2018-07-01T07:33:58.718Z,3848
2018-07-01T07:35:08.799Z,3888
2018-07-01T07:36:18.365Z,3880
2018-07-01T07:37:28.216Z,3844
2018-07-01T07:38:38.293Z,3836
2018-07-01T07:39:48.381Z,3996
2018-07-01T07:40:58.472Z,4256
2018-07-01T07:42:08.282Z,4088
2018-07-01T07:43:18.107Z,4140
2018-07-01T07:44:27.929Z,4308
2018-07-01T07:45:38.000Z,4264
2018-07-01T07:46:48.086Z,4132
2018-07-01T07:47:58.188Z,4064
2018-07-01T07:49:08.274Z,3804
2018-07-01T07:50:18.338Z,4000
2018-07-01T07:51:28.428Z,3964
2018-07-01T07:52:38.543Z,3884
2018-07-01T07:53:48.632Z,3884
2018-07-01T07:54:58.744Z,3864
2018-07-01T07:56:08.846Z,3860
2018-07-01T07:57:18.979Z,3876
2018-07-01T07:58:29.285Z,3884
2018-07-01T07:59:39.116Z,3896
2018-07-01T08:00:48.701Z,3920
2018-07-01T08:01:59.007Z,3928
2018-07-01T08:03:08.820Z,3944
2018-07-01T08:04:18.645Z,3960
2018-07-01T08:05:28.746Z,3976
2018-07-01T08:06:38.556Z,3980
2018-07-01T08:07:48.128Z,3992
2018-07-01T08:08:58.213Z,4020
2018-07-01T08:10:08.279Z,4032
2018-07-01T08:11:18.402Z,4056
2018-07-01T08:12:28.446Z,4068
2018-07-01T08:13:37.987Z,4088
2018-07-01T08:14:48.074Z,4112
2018-07-01T08:15:58.158Z,4132
2018-07-01T08:17:08.245Z,4168
2018-07-01T08:18:18.358Z,4204
2018-07-01T08:19:28.453Z,4252
2018-07-01T08:20:38.590Z,4308
2018-07-01T08:21:48.730Z,4444
2018-07-01T08:22:58.860Z,4636
2018-07-01T08:24:08.952Z,4840
2018-07-01T08:25:19.044Z,5048
2018-07-01T08:26:29.127Z,5252
2018-07-01T08:27:39.210Z,5448
2018-07-01T08:28:49.299Z,5656
2018-07-01T08:29:59.452Z,5848
2018-07-01T08:31:09.551Z,5980
2018-07-01T08:32:19.640Z,6120
2018-07-01T08:33:29.717Z,6260
2018-07-01T08:34:40.082Z,6260
2018-07-01T08:35:49.684Z,5320
2018-07-01T08:36:59.784Z,4628
2018-07-01T08:38:10.226Z,6796
2018-07-01T08:39:20.308Z,6748
2018-07-01T08:40:30.165Z,7176
2018-07-01T08:41:40.242Z,7220
2018-07-01T08:42:50.359Z,7104
2018-07-01T08:44:00.504Z,5276
2018-07-01T08:45:10.663Z,5060
2018-07-01T08:46:20.612Z,7276
2018-07-01T08:47:30.522Z,7708
2018-07-01T08:48:40.604Z,6080
2018-07-01T08:49:50.484Z,5696
2018-07-01T08:51:00.567Z,5980
2018-07-01T08:52:10.725Z,7712
2018-07-01T08:53:20.838Z,6032
2018-07-01T08:54:30.673Z,6064
2018-07-01T08:55:40.843Z,5588
2018-07-01T08:56:50.933Z,5492
2018-07-01T08:58:01.085Z,5480
2018-07-01T08:59:11.164Z,7228
2018-07-01T09:00:21.306Z,5752
2018-07-01T09:01:31.403Z,5404
2018-07-01T09:02:41.504Z,5560
2018-07-01T09:03:51.593Z,4848
2018-07-01T09:05:01.913Z,4536
2018-07-01T09:06:12.016Z,4492
2018-07-01T09:07:21.822Z,4860
2018-07-01T09:08:32.121Z,4708
2018-07-01T09:09:42.410Z,4888
2018-07-01T09:10:52.551Z,5104
2018-07-01T09:12:02.647Z,5384
2018-07-01T09:13:12.493Z,7452
2018-07-01T09:14:22.586Z,7880
2018-07-01T09:15:32.669Z,7908
2018-07-01T09:16:42.518Z,7996
2018-07-01T09:17:52.351Z,7984
2018-07-01T09:19:01.912Z,7956
2018-07-01T09:20:12.003Z,7856
2018-07-01T09:21:21.863Z,7704
2018-07-01T09:22:31.956Z,4824
2018-07-01T09:23:42.395Z,4752
2018-07-01T09:24:52.474Z,4764
2018-07-01T09:26:02.305Z,4704
2018-07-01T09:27:12.142Z,4632
2018-07-01T09:28:21.987Z,4536
2018-07-01T09:29:32.079Z,4396
2018-07-01T09:30:42.157Z,4224
2018-07-01T09:31:52.255Z,4084
2018-07-01T09:33:02.353Z,3900
2018-07-01T09:34:12.190Z,3788
2018-07-01T09:35:22.312Z,3804
2018-07-01T09:36:32.147Z,3908
2018-07-01T09:37:41.992Z,3996
2018-07-01T09:38:52.096Z,4080
2018-07-01T09:40:02.202Z,4248
2018-07-01T09:41:12.010Z,4548
2018-07-01T09:42:22.108Z,6668
2018-07-01T09:43:32.159Z,8120
2018-07-01T09:44:42.261Z,8308
2018-07-01T09:45:52.099Z,8256
2018-07-01T09:47:02.166Z,8116
2018-07-01T09:48:12.293Z,6096
2018-07-01T09:49:22.112Z,8076
2018-07-01T09:50:32.822Z,7636
2018-07-01T09:51:43.057Z,8064
2018-07-01T09:52:53.132Z,5692
2018-07-01T09:54:03.225Z,4760
2018-07-01T09:55:13.049Z,4536
2018-07-01T09:56:23.153Z,4348
2018-07-01T09:57:33.001Z,4224
2018-07-01T09:58:43.076Z,4220
2018-07-01T09:59:53.157Z,4348
2018-07-01T10:01:03.558Z,4584
2018-07-01T10:02:13.693Z,4824
2018-07-01T10:03:23.807Z,7468
2018-07-01T10:04:33.628Z,7900
2018-07-01T10:05:43.753Z,8172
2018-07-01T10:06:53.573Z,8328
2018-07-01T10:08:03.691Z,8512
2018-07-01T10:09:13.793Z,8668
2018-07-01T10:10:23.877Z,8640
2018-07-01T10:11:33.715Z,8572
2018-07-01T10:12:43.809Z,8620
2018-07-01T10:13:53.633Z,8668
2018-07-01T10:15:03.711Z,8416
2018-07-01T10:18:54.492Z,4044
2018-07-01T10:20:04.781Z,3956
2018-07-01T10:21:14.894Z,3904
2018-07-01T10:22:25.022Z,3904
2018-07-01T10:23:35.169Z,3900
2018-07-01T10:24:45.044Z,4020
2018-07-01T10:25:55.404Z,5656
2018-07-01T10:27:05.489Z,7884
2018-07-01T10:28:15.319Z,8068
2018-07-01T10:29:25.400Z,8248
2018-07-01T10:30:35.544Z,8424
2018-07-01T10:31:45.439Z,8668
2018-07-01T10:32:55.558Z,8260
2018-07-01T10:34:05.649Z,8824
2018-07-01T10:35:15.754Z,5264
2018-07-01T10:36:25.846Z,5436
2018-07-01T10:37:35.680Z,5708
2018-07-01T10:38:45.787Z,5504
2018-07-01T10:39:55.883Z,5524
2018-07-01T10:41:05.979Z,5720
2018-07-01T10:42:16.080Z,7412
2018-07-01T10:43:26.174Z,5952
2018-07-01T10:44:36.277Z,6084
2018-07-01T10:45:46.491Z,7852
2018-07-01T10:46:56.347Z,5516
2018-07-01T10:48:06.421Z,5704
2018-07-01T10:49:16.529Z,7520
2018-07-01T10:50:26.621Z,5356
2018-07-01T10:51:36.521Z,5176
2018-07-01T10:52:46.720Z,4960
2018-07-01T10:53:56.843Z,4792
2018-07-01T10:55:07.012Z,4688
2018-07-01T10:56:17.105Z,4664
2018-07-01T10:57:26.934Z,4780
2018-07-01T10:58:37.133Z,4996
2018-07-01T10:59:47.014Z,5256
2018-07-01T11:00:57.116Z,5468
2018-07-01T11:02:07.022Z,5640
2018-07-01T11:03:17.142Z,8084
2018-07-01T11:04:27.224Z,5348
2018-07-01T11:05:37.320Z,5572
2018-07-01T11:06:47.149Z,4980
2018-07-01T11:07:57.260Z,4716
2018-07-01T11:09:07.351Z,4552
2018-07-01T11:10:17.427Z,4428
2018-07-01T11:11:27.269Z,4396
2018-07-01T11:12:37.362Z,4452
2018-07-01T11:13:47.468Z,4568
2018-07-01T11:14:57.598Z,4696
2018-07-01T11:16:07.708Z,5020
2018-07-01T11:17:17.801Z,5436
2018-07-01T11:18:27.972Z,6376
2018-07-01T11:19:37.797Z,7176
2018-07-01T11:20:47.892Z,9124
2018-07-01T11:21:58.020Z,9396
2018-07-01T11:23:07.857Z,5420
2018-07-01T11:24:17.954Z,5096
2018-07-01T11:25:28.054Z,5648
2018-07-01T11:26:38.718Z,8720
2018-07-01T11:27:48.762Z,6208
2018-07-01T11:28:58.336Z,8416
2018-07-01T11:30:08.429Z,7632
2018-07-01T11:31:18.508Z,8036
2018-07-01T11:32:28.603Z,4640
2018-07-01T11:33:38.813Z,8480
2018-07-01T11:34:48.655Z,8332
2018-07-01T11:35:58.781Z,8360
2018-07-01T11:37:08.870Z,8372
2018-07-01T11:38:18.987Z,8560
2018-07-01T11:39:29.092Z,5536
2018-07-01T11:40:39.219Z,4316
2018-07-01T11:41:49.076Z,4232
2018-07-01T11:42:59.173Z,4528
2018-07-01T11:44:09.029Z,4392
2018-07-01T11:45:18.864Z,7972
2018-07-01T11:46:28.934Z,7924
2018-07-01T11:47:39.024Z,3744
2018-07-01T11:48:49.110Z,3560
2018-07-01T11:49:59.198Z,3556
2018-07-01T11:51:09.310Z,3676
2018-07-01T11:52:19.558Z,3812
2018-07-01T11:53:29.687Z,3856
2018-07-01T11:54:39.781Z,3920
2018-07-01T11:55:49.606Z,4024
2018-07-01T11:56:59.702Z,4052
2018-07-01T11:58:09.628Z,4068
2018-07-01T11:59:19.189Z,4128
2018-07-01T12:00:29.281Z,7160
2018-07-01T12:01:39.373Z,8300
2018-07-01T12:02:49.518Z,8164
2018-07-01T12:03:59.349Z,8060
2018-07-01T12:05:24.325Z,7888
2018-07-01T12:06:34.446Z,7792
2018-07-01T12:07:44.592Z,7740
2018-07-01T12:08:54.947Z,7932
2018-07-01T12:10:05.051Z,7196
2018-07-01T12:11:15.159Z,8368
2018-07-01T12:12:25.016Z,8448
2018-07-01T12:13:35.115Z,4708
2018-07-01T12:14:45.243Z,4816
2018-07-01T12:15:55.375Z,4976
2018-07-01T12:17:05.475Z,4852
2018-07-01T12:18:15.580Z,4736
2018-07-01T12:19:25.692Z,4656
2018-07-01T12:20:35.823Z,4600
2018-07-01T12:21:45.659Z,4560
2018-07-01T12:22:55.753Z,4612
2018-07-01T12:24:05.861Z,4664
2018-07-01T12:25:15.728Z,4780
2018-07-01T12:26:25.585Z,6116
2018-07-01T12:27:35.693Z,6372
2018-07-01T12:28:45.672Z,5076
2018-07-01T12:29:55.807Z,5080
2018-07-01T12:31:05.910Z,6908
2018-07-01T12:32:16.015Z,8652
2018-07-01T12:33:26.159Z,8768
2018-07-01T12:34:36.269Z,8668
2018-07-01T12:35:46.423Z,8604
2018-07-01T12:36:56.312Z,8480
2018-07-01T12:38:06.166Z,8292
2018-07-01T12:39:16.258Z,4164
2018-07-01T12:40:26.397Z,3964
2018-07-01T12:41:36.508Z,3892
2018-07-01T12:42:46.463Z,3884
2018-07-01T12:43:56.587Z,3696
2018-07-01T12:45:06.427Z,3528
2018-07-01T12:46:16.535Z,3412
2018-07-01T12:47:26.653Z,4060
2018-07-01T12:48:36.567Z,7512
2018-07-01T12:49:46.663Z,3612
2018-07-01T12:50:56.759Z,3428
2018-07-01T12:52:06.614Z,3400
2018-07-01T12:53:16.721Z,3416
2018-07-01T12:54:26.604Z,3420
2018-07-01T12:55:36.707Z,3516
2018-07-01T12:56:46.996Z,3688
2018-07-01T12:57:57.102Z,3964
2018-07-01T12:59:06.943Z,4220
2018-07-01T13:00:17.052Z,8368
2018-07-01T13:01:27.167Z,8260
2018-07-01T13:02:37.586Z,8176
2018-07-01T13:03:47.677Z,8212
2018-07-01T13:04:57.758Z,8232
2018-07-01T13:06:07.562Z,8348
2018-07-01T13:07:17.710Z,8552
2018-07-01T13:08:27.911Z,8680
2018-07-01T13:09:37.831Z,8728
2018-07-01T13:10:47.916Z,8712
2018-07-01T13:11:57.569Z,8652
2018-07-01T13:13:07.880Z,8556
2018-07-01T13:14:17.961Z,8476
2018-07-01T13:15:28.054Z,8492
2018-07-01T13:16:37.886Z,4836
2018-07-01T13:17:48.028Z,4812
2018-07-01T13:18:58.129Z,5100
2018-07-01T13:20:08.434Z,7556
2018-07-01T13:21:18.278Z,5276
2018-07-01T13:22:28.407Z,5400
2018-07-01T13:23:38.498Z,5712
2018-07-01T13:24:48.630Z,5628
2018-07-01T13:25:58.212Z,5608
2018-07-01T13:27:08.318Z,5684
2018-07-01T13:28:18.162Z,6916
2018-07-01T13:29:28.068Z,5816
2018-07-01T13:30:38.168Z,9076
2018-07-01T13:31:48.060Z,8836
2018-07-01T13:32:58.135Z,8452
2018-07-01T13:34:08.264Z,7900
2018-07-01T13:35:17.833Z,7412
2018-07-01T13:36:27.674Z,6928
2018-07-01T13:37:37.780Z,6592
2018-07-01T13:38:47.616Z,6396
2018-07-01T13:39:57.786Z,6280
2018-07-01T13:41:07.870Z,6228
2018-07-01T13:42:17.979Z,6212
2018-07-01T13:43:27.828Z,6300
2018-07-01T13:44:37.688Z,6400
2018-07-01T13:45:47.782Z,6556
2018-07-01T13:46:58.124Z,6828
2018-07-01T13:48:08.185Z,7016
2018-07-01T13:49:18.459Z,7164
2018-07-01T13:50:28.699Z,7396
2018-07-01T13:51:38.788Z,7524
2018-07-01T13:52:48.605Z,7600
2018-07-01T13:53:58.706Z,7592
2018-07-01T13:55:08.808Z,7608
2018-07-01T13:56:18.918Z,7696
2018-07-01T13:57:29.014Z,6976
2018-07-01T13:58:38.876Z,5792
2018-07-01T13:59:48.929Z,7388
2018-07-01T14:00:59.027Z,4356
2018-07-01T14:02:09.156Z,3816
2018-07-01T14:03:19.266Z,3444
2018-07-01T14:04:29.403Z,3220
2018-07-01T14:05:39.491Z,6116
2018-07-01T14:06:49.535Z,2908
2018-07-01T14:07:59.642Z,5168
2018-07-01T14:09:09.530Z,5748
2018-07-01T14:10:19.351Z,5688
2018-07-01T14:11:29.442Z,5624
2018-07-01T14:12:39.606Z,5568
2018-07-01T14:13:49.707Z,5516
2018-07-01T14:14:59.814Z,5476
2018-07-01T14:16:09.917Z,5420
2018-07-01T14:17:20.370Z,5404
2018-07-01T14:18:30.617Z,5400
2018-07-01T14:19:40.477Z,5420
2018-07-01T14:20:50.593Z,5436
2018-07-01T14:22:00.715Z,5404
2018-07-01T14:23:10.819Z,5464
2018-07-01T14:24:20.712Z,5628
2018-07-01T14:25:30.854Z,4732
2018-07-01T14:26:40.958Z,5888
2018-07-01T14:27:51.075Z,6208
2018-07-01T14:29:01.190Z,6216
2018-07-01T14:30:11.615Z,6212
2018-07-01T14:31:22.005Z,6212
2018-07-01T14:32:32.579Z,5948
2018-07-01T14:33:42.926Z,6080
2018-07-01T14:34:52.997Z,3308
2018-07-01T14:36:03.177Z,5340
2018-07-01T14:37:13.276Z,3108
2018-07-01T14:38:23.383Z,3356
2018-07-01T14:39:33.478Z,5076
2018-07-01T14:40:43.586Z,3996
2018-07-01T14:41:53.746Z,3492
2018-07-01T14:43:03.566Z,3376
2018-07-01T14:44:13.396Z,3012
2018-07-01T14:45:23.482Z,5344
2018-07-01T14:46:33.575Z,5368
2018-07-01T14:47:43.478Z,5224
2018-07-01T14:48:53.567Z,5096
2018-07-01T14:50:03.681Z,5008
2018-07-01T14:51:13.792Z,4996
2018-07-01T14:52:23.894Z,5016
2018-07-01T14:53:33.990Z,5088
2018-07-01T14:54:44.108Z,5108
2018-07-01T14:55:54.017Z,5144
2018-07-01T14:57:04.119Z,5136
2018-07-01T14:58:14.230Z,5100
2018-07-01T14:59:24.341Z,5028
2018-07-01T15:00:34.168Z,4888
2018-07-01T15:01:44.290Z,3444
2018-07-01T15:02:54.119Z,2624
2018-07-01T15:04:04.242Z,4912
2018-07-01T15:05:14.097Z,4920
2018-07-01T15:06:24.216Z,4876
2018-07-01T15:07:34.062Z,4968
2018-07-01T15:08:44.173Z,4972
2018-07-01T15:09:54.347Z,4964
2018-07-01T15:11:04.489Z,5036
2018-07-01T15:12:14.690Z,4628
2018-07-01T15:13:24.795Z,4960
2018-07-01T15:14:34.918Z,4804
2018-07-01T15:15:45.045Z,4384
2018-07-01T15:16:55.167Z,2456
2018-07-01T15:18:05.256Z,3932
2018-07-01T15:19:15.446Z,4500
2018-07-01T15:20:25.315Z,4428
2018-07-01T15:21:35.426Z,4352
2018-07-01T15:22:45.525Z,4368
2018-07-01T15:23:55.638Z,4428
2018-07-01T15:25:05.780Z,4480
2018-07-01T15:26:15.599Z,4416
2018-07-01T15:27:25.647Z,4340
2018-07-01T15:28:35.748Z,3460
2018-07-01T15:29:45.841Z,2344
2018-07-01T15:30:55.942Z,3280
2018-07-01T15:32:06.046Z,2560
2018-07-01T15:33:16.141Z,3248
2018-07-01T15:34:26.241Z,3904
2018-07-01T15:35:36.384Z,2140
2018-07-01T15:36:46.479Z,2244
2018-07-01T15:37:56.326Z,2068
2018-07-01T15:39:07.075Z,2056
2018-07-01T15:40:16.782Z,3816
2018-07-01T15:41:27.148Z,3828
2018-07-01T15:42:37.246Z,3860
2018-07-01T15:43:47.360Z,3808
2018-07-01T15:44:57.217Z,3768
2018-07-01T15:46:07.358Z,3680
2018-07-01T15:47:17.476Z,3636
2018-07-01T15:48:27.575Z,3636
2018-07-01T15:49:37.662Z,3608
2018-07-01T15:50:47.772Z,3604
2018-07-01T15:51:57.884Z,3608
2018-07-01T15:53:07.674Z,3600
2018-07-01T15:54:17.854Z,3616
2018-07-01T15:55:27.931Z,3604
2018-07-01T15:56:38.043Z,3616
2018-07-01T15:57:47.906Z,3592
2018-07-01T15:58:58.026Z,3196
2018-07-01T16:00:08.158Z,2672
2018-07-01T16:01:18.258Z,3504
2018-07-01T16:02:28.467Z,3456
2018-07-01T16:03:38.650Z,3428
2018-07-01T16:04:48.477Z,3396
2018-07-01T16:05:58.631Z,3396
2018-07-01T16:07:08.753Z,3380
2018-07-01T16:08:18.842Z,3372
2018-07-01T16:09:28.669Z,3368
2018-07-01T16:10:38.790Z,3332
2018-07-01T16:11:49.001Z,3296
2018-07-01T16:12:59.143Z,3264
2018-07-01T16:14:09.220Z,3240
2018-07-01T16:15:19.288Z,3204
2018-07-01T16:16:29.377Z,3240
2018-07-01T16:17:39.493Z,3244
2018-07-01T16:18:49.626Z,3220
2018-07-01T16:19:59.723Z,3188
2018-07-01T16:21:09.588Z,3152
2018-07-01T16:22:19.748Z,2640
2018-07-01T16:23:29.834Z,3300